Time;durP1;ratioP1;P1;durP2;ratioP2;P2;SDS_P1;SDS_P2;PMS_P1;PMS_P2;Temp;Humidity;BMP_temperature;BMP_pressure;BME280_temperature;BME280_humidity;BME280_pressure;Samples;Min_cycle;Max_cycle;Signal;HPM_P1;HPM_P2
2023/02/22 00:00:41;;;;;;;13.00;11.70;;;5.00;99.90;;;4.96;93.55;97975.72;5042125;28;20510;-73
2023/02/22 00:03:13;;;;;;;16.53;12.10;;;5.00;99.90;;;4.95;93.34;97965.19;5041428;28;20788;-72
2023/02/22 00:05:44;;;;;;;14.53;13.03;;;4.90;99.90;;;4.79;93.47;97942.06;5058889;28;20445;-73
2023/02/22 00:08:11;;;;;;;15.23;12.53;;;4.90;99.90;;;4.96;93.32;97964.19;5043792;28;20487;-73
2023/02/22 00:10:40;;;;;;;13.63;11.70;;;4.90;99.90;;;4.87;92.98;97959.91;5051961;28;20485;-73
2023/02/22 00:13:09;;;;;;;13.33;11.93;;;4.80;99.90;;;4.68;93.27;97948.69;5047995;28;20782;-74
2023/02/22 00:15:40;;;;;;;14.10;11.60;;;4.70;99.90;;;4.31;94.20;97892.25;5062222;28;20459;-74
2023/02/22 00:18:10;;;;;;;13.67;11.87;;;4.70;99.90;;;4.62;94.31;97952.91;5048420;28;20457;-72
2023/02/22 00:20:38;;;;;;;13.40;9.73;;;4.60;99.90;;;4.56;94.46;97942.91;5067325;28;20456;-73
2023/02/22 00:23:07;;;;;;;13.20;11.30;;;4.50;99.90;;;4.56;94.03;97942.06;5048446;28;20461;-74
2023/02/22 00:25:35;;;;;;;11.07;10.00;;;4.50;99.90;;;4.58;93.63;97940.03;5061967;28;20477;-73
2023/02/22 00:28:04;;;;;;;12.27;10.97;;;4.50;99.90;;;4.66;93.27;97940.00;5049925;28;20472;-75
2023/02/22 00:30:32;;;;;;;12.17;10.97;;;4.60;99.90;;;4.66;92.98;97942.66;5048689;28;20456;-75
2023/02/22 00:33:00;;;;;;;15.23;10.63;;;4.60;99.90;;;4.62;93.08;97942.19;5050126;28;20512;-76
2023/02/22 00:35:30;;;;;;;12.83;11.00;;;4.70;99.90;;;3.97;93.14;97854.19;5050536;28;20856;-74
2023/02/22 00:38:00;;;;;;;12.87;11.10;;;4.70;99.90;;;4.54;92.82;97932.38;5049321;28;20467;-74
2023/02/22 00:40:30;;;;;;;13.27;11.10;;;4.60;99.90;;;4.49;93.24;97936.59;5047924;28;20516;-73
2023/02/22 00:42:57;;;;;;;13.30;11.73;;;4.60;99.90;;;4.37;93.64;97936.19;5051436;28;20488;-73
2023/02/22 00:45:32;;;;;;;12.33;11.00;;;4.60;99.90;;;4.51;93.60;97938.09;5062845;28;20835;-71
2023/02/22 00:48:00;;;;;;;13.50;11.10;;;4.60;99.90;;;4.09;92.77;97861.81;5061151;28;20452;-71
2023/02/22 00:50:30;;;;;;;12.20;11.00;;;4.50;99.90;;;4.46;93.10;97928.94;5071558;28;20869;-72
2023/02/22 00:52:59;;;;;;;12.43;11.20;;;4.50;99.90;;;4.40;92.16;97927.81;5053136;28;20535;-71
2023/02/22 00:55:29;;;;;;;15.97;11.50;;;4.40;99.90;;;4.29;92.57;97925.53;5055276;28;20480;-72
2023/02/22 00:57:57;;;;;;;12.67;11.07;;;4.30;99.90;;;4.06;92.96;97905.78;5051330;28;20452;-71
2023/02/22 01:00:30;;;;;;;12.87;11.37;;;4.20;99.90;;;3.95;95.09;97923.06;5049323;28;20453;-73
2023/02/22 01:02:57;;;;;;;14.13;11.60;;;4.10;99.90;;;3.83;95.57;97906.59;5046293;28;20503;-71
2023/02/22 01:05:29;;;;;;;15.00;12.27;;;4.00;99.90;;;3.96;95.77;97932.75;5055811;28;20446;-72
2023/02/22 01:07:57;;;;;;;13.47;11.70;;;3.90;99.90;;;4.02;96.45;97927.69;5049213;28;20457;-72
2023/02/22 01:10:28;;;;;;;13.53;12.23;;;4.00;99.90;;;4.02;95.53;97925.00;5047393;28;20456;-72
2023/02/22 01:12:56;;;;;;;13.57;11.67;;;3.90;99.90;;;4.09;94.86;97921.50;5050603;28;20484;-72
2023/02/22 01:15:29;;;;;;;17.53;11.57;;;4.00;99.90;;;4.22;94.41;97920.91;5049035;28;20560;-72
2023/02/22 01:17:58;;;;;;;13.57;11.93;;;4.10;99.90;;;4.21;93.96;97916.56;5049062;28;20450;-73
2023/02/22 01:20:28;;;;;;;13.47;11.53;;;4.20;99.90;;;4.32;94.69;97922.50;5057305;28;20506;-71
2023/02/22 01:22:57;;;;;;;13.47;12.13;;;4.30;99.90;;;4.21;94.31;97897.00;5051540;28;20506;-72
2023/02/22 01:25:28;;;;;;;11.93;10.73;;;4.30;99.90;;;4.30;93.50;97916.50;5048126;28;20869;-73
2023/02/22 01:27:56;;;;;;;14.50;11.47;;;4.30;99.90;;;4.30;94.08;97913.81;5048820;28;20523;-72
2023/02/22 01:30:27;;;;;;;13.30;11.03;;;4.30;99.90;;;4.30;93.75;97917.34;5047259;28;20449;-73
2023/02/22 01:32:55;;;;;;;12.97;11.67;;;4.30;99.90;;;4.24;94.03;97908.19;5055820;28;20961;-70
2023/02/22 01:35:27;;;;;;;13.90;12.07;;;4.30;99.90;;;4.23;93.57;97911.88;5048614;28;20449;-73
2023/02/22 01:37:54;;;;;;;13.40;12.20;;;4.20;99.90;;;4.15;94.11;97903.06;5048049;28;20458;-74
2023/02/22 01:40:25;;;;;;;13.17;11.87;;;4.20;99.90;;;4.10;94.00;97907.09;5046693;28;20474;-73
2023/02/22 01:42:54;;;;;;;15.23;12.30;;;4.10;99.90;;;4.09;93.99;97905.44;5048628;28;20449;-74
2023/02/22 01:45:47;;;;;;;12.47;11.17;;;4.10;99.90;;;4.09;93.37;97900.09;5064355;28;20456;-72
2023/02/22 01:48:23;;;;;;;14.57;11.40;;;4.10;99.90;;;4.06;93.54;97904.97;5050871;28;20837;-73
2023/02/22 01:50:54;;;;;;;14.00;10.93;;;4.00;99.90;;;3.66;94.01;97844.38;5053924;28;20990;-74
2023/02/22 01:53:27;;;;;;;13.17;11.80;;;4.10;99.90;;;3.87;93.83;97895.53;5049016;28;20470;-73
2023/02/22 01:55:55;;;;;;;13.33;12.03;;;4.00;99.90;;;3.92;94.22;97899.34;5050343;28;20525;-72
2023/02/22 01:58:24;;;;;;;12.87;11.50;;;3.90;99.90;;;4.05;93.76;97897.94;5049346;28;20463;-72
2023/02/22 02:00:54;;;;;;;11.80;10.70;;;3.90;99.90;;;4.08;92.61;97884.22;5045720;28;20453;-73
2023/02/22 02:03:26;;;;;;;11.60;10.50;;;4.00;99.90;;;4.06;92.08;97876.38;5050397;28;20564;-73
2023/02/22 02:05:57;;;;;;;13.10;11.13;;;4.00;99.90;;;4.10;91.32;97879.53;5050257;28;20543;-73
2023/02/22 02:08:35;;;;;;;11.83;10.43;;;4.10;99.90;;;4.14;91.79;97880.81;5044332;28;20864;-74
2023/02/22 02:11:07;;;;;;;14.03;11.60;;;4.10;99.90;;;3.63;91.31;97801.97;5040453;28;20973;-75
2023/02/22 02:13:36;;;;;;;12.83;11.03;;;4.10;99.90;;;3.96;91.57;97857.88;5056119;28;20462;-72
2023/02/22 02:16:05;;;;;;;11.87;10.67;;;4.10;99.90;;;4.04;91.00;97867.69;5069401;28;20501;-76
2023/02/22 02:18:32;;;;;;;12.53;11.10;;;4.10;99.90;;;4.07;91.52;97879.88;5063497;28;20446;-73
2023/02/22 02:21:39;;;;;;;13.90;11.20;;;4.00;99.90;;;4.04;91.32;97880.25;5057776;28;20466;-72
2023/02/22 02:25:10;;;;;;;12.30;11.00;;;4.00;99.90;;;4.03;91.20;97867.88;5041920;28;20449;-72
2023/02/22 02:28:11;;;;;;;15.30;11.10;;;4.00;99.90;;;3.99;90.99;97877.25;5070025;28;20459;-73
2023/02/22 02:31:09;;;;;;;13.60;12.20;;;4.00;99.90;;;3.92;91.28;97871.78;5044363;28;20531;-73
2023/02/22 02:33:44;;;;;;;13.67;11.07;;;4.00;99.90;;;3.91;92.34;97862.94;5038198;28;20489;-72
2023/02/22 02:36:19;;;;;;;14.90;10.73;;;4.00;99.90;;;3.93;91.35;97868.94;5051237;28;20462;-73
2023/02/22 02:38:55;;;;;;;12.97;11.13;;;3.90;99.90;;;3.94;91.10;97872.44;5048426;28;20456;-73
2023/02/22 02:41:27;;;;;;;13.13;11.23;;;3.90;99.90;;;3.91;90.96;97862.09;5043971;28;20548;-73
2023/02/22 02:44:03;;;;;;;12.13;10.80;;;3.90;99.90;;;3.86;91.08;97862.63;5056732;28;20460;-73
2023/02/22 02:46:34;;;;;;;15.07;12.27;;;3.90;99.90;;;3.81;90.91;97856.97;5061674;28;20519;-74
2023/02/22 02:49:08;;;;;;;11.47;10.30;;;3.80;99.90;;;3.86;90.65;97862.63;5053532;28;20576;-72
2023/02/22 02:51:41;;;;;;;12.73;10.83;;;3.80;99.90;;;3.87;91.14;97863.47;5053431;28;21021;-72
2023/02/22 02:54:09;;;;;;;15.50;11.20;;;3.80;99.90;;;3.75;91.25;97849.69;5059947;28;20469;-71
2023/02/22 02:56:37;;;;;;;11.63;10.50;;;3.70;99.90;;;3.75;90.75;97855.03;5057100;28;21077;-72
2023/02/22 02:59:24;;;;;;;13.53;12.13;;;3.70;99.90;;;3.69;91.18;97849.34;5038163;28;20465;-71
2023/02/22 03:02:10;;;;;;;14.73;10.87;;;3.70;99.90;;;3.73;90.86;97846.34;5065997;28;20788;-72
2023/02/22 03:04:54;;;;;;;15.77;11.80;;;3.70;99.90;;;3.79;91.43;97862.50;5047017;28;20455;-74
2023/02/22 03:07:34;;;;;;;11.67;10.50;;;3.70;99.90;;;3.53;91.07;97812.88;5053916;28;20464;-73
2023/02/22 03:10:28;;;;;;;13.60;11.00;;;3.70;99.90;;;3.71;91.42;97851.84;5049493;28;20537;-73
2023/02/22 03:13:08;;;;;;;12.63;10.43;;;3.70;99.90;;;3.72;91.45;97847.34;5045561;28;20519;-73
2023/02/22 03:15:44;;;;;;;12.47;11.13;;;3.60;99.90;;;3.73;91.07;97841.81;5044343;28;20771;-73
2023/02/22 03:18:21;;;;;;;12.87;10.80;;;3.70;99.90;;;3.61;91.15;97836.06;5040740;28;20453;-72
2023/02/22 03:20:58;;;;;;;15.83;11.17;;;3.70;99.90;;;3.45;92.31;97834.28;5049472;28;20516;-72
2023/02/22 03:23:33;;;;;;;11.80;10.60;;;3.50;99.90;;;3.44;92.38;97843.31;5041981;28;21042;-74
2023/02/22 03:26:07;;;;;;;13.73;11.33;;;3.40;99.90;;;3.33;93.44;97844.53;5070588;28;20488;-74
2023/02/22 03:28:36;;;;;;;14.83;11.00;;;3.40;99.90;;;3.32;93.62;97842.00;5081824;28;20439;-74
2023/02/22 03:31:09;;;;;;;12.30;10.80;;;3.30;99.90;;;3.36;92.57;97820.13;5058888;28;20457;-72
2023/02/22 03:33:42;;;;;;;12.70;11.37;;;3.40;99.90;;;3.54;93.15;97837.75;5061518;28;20805;-71
2023/02/22 03:36:18;;;;;;;14.53;11.80;;;3.50;99.90;;;3.50;92.14;97831.09;5057519;28;20461;-72
2023/02/22 03:38:47;;;;;;;12.73;10.23;;;3.50;99.90;;;3.53;92.78;97836.06;5054489;28;20454;-73
2023/02/22 03:41:19;;;;;;;12.50;11.07;;;3.50;99.90;;;3.51;92.41;97832.75;5051625;28;20911;-71
2023/02/22 03:43:53;;;;;;;14.07;10.70;;;3.50;99.90;;;3.38;92.51;97823.47;5040495;28;20442;-74
2023/02/22 03:46:22;;;;;;;13.10;11.30;;;3.50;99.90;;;3.36;93.00;97827.31;5045961;28;20579;-72
2023/02/22 03:48:54;;;;;;;11.40;10.20;;;3.50;99.90;;;3.34;93.22;97829.34;5044956;28;20458;-72
2023/02/22 03:51:23;;;;;;;13.10;11.00;;;3.50;99.90;;;3.30;94.02;97834.19;5048445;28;20447;-72
2023/02/22 03:53:52;;;;;;;12.90;10.97;;;3.40;99.90;;;3.27;93.83;97821.19;5042625;28;20477;-72
2023/02/22 03:56:25;;;;;;;13.10;11.67;;;3.50;99.90;;;3.45;93.36;97833.47;5049381;28;20459;-75
2023/02/22 03:58:54;;;;;;;14.90;12.60;;;3.50;99.90;;;3.40;93.25;97834.78;5031463;28;20443;-71
2023/02/22 04:01:22;;;;;;;13.33;11.57;;;3.50;99.90;;;3.34;93.56;97832.84;5047409;28;20453;-74
2023/02/22 04:03:49;;;;;;;13.33;11.93;;;3.50;99.90;;;3.28;93.72;97824.69;5052878;28;21019;-72
2023/02/22 04:06:17;;;;;;;13.23;10.90;;;3.50;99.90;;;3.30;93.40;97825.34;5052922;28;20507;-72
2023/02/22 04:08:45;;;;;;;14.47;12.00;;;3.50;99.90;;;3.35;92.85;97829.16;5053824;28;20547;-71
2023/02/22 04:11:13;;;;;;;14.30;10.93;;;3.50;99.90;;;3.32;93.03;97831.31;5041521;28;20452;-72
2023/02/22 04:13:40;;;;;;;14.00;10.90;;;3.40;99.90;;;3.18;93.17;97822.22;5038903;28;20897;-72
2023/02/22 04:16:07;;;;;;;12.33;10.83;;;3.40;99.90;;;3.26;92.41;97830.19;5045410;28;20522;-69
2023/02/22 04:18:35;;;;;;;12.40;11.07;;;3.30;99.90;;;2.95;93.11;97797.09;5047016;28;20898;-70
2023/02/22 04:21:02;;;;;;;14.17;12.10;;;3.30;99.90;;;3.21;92.38;97821.88;5046693;28;20454;-71
2023/02/22 04:23:30;;;;;;;13.43;11.97;;;3.30;99.90;;;3.14;92.24;97826.25;5036192;28;20454;-72
2023/02/22 04:25:58;;;;;;;11.13;10.10;;;3.20;99.90;;;2.99;92.75;97829.63;5045709;28;20950;-71
2023/02/22 04:28:26;;;;;;;11.50;10.40;;;3.20;99.90;;;2.75;93.24;97796.66;5040814;28;20505;-71
2023/02/22 04:30:53;;;;;;;12.77;10.73;;;3.10;99.90;;;2.95;92.78;97833.63;5042712;28;20457;-71
2023/02/22 04:33:20;;;;;;;12.87;11.57;;;3.00;99.90;;;2.95;92.94;97833.63;5064020;28;20441;-71
2023/02/22 04:35:48;;;;;;;12.53;11.23;;;3.00;99.90;;;3.01;92.74;97826.78;5046967;28;20469;-73
2023/02/22 04:38:15;;;;;;;15.83;11.77;;;3.00;99.90;;;2.95;92.56;97822.94;5047728;28;20899;-73
2023/02/22 04:40:42;;;;;;;14.50;11.23;;;3.00;99.90;;;2.94;92.55;97815.94;5045491;28;20535;-73
2023/02/22 04:43:11;;;;;;;12.43;11.20;;;3.10;99.90;;;2.87;92.08;97806.97;5049748;28;20452;-75
2023/02/22 04:45:38;;;;;;;12.57;10.83;;;3.10;99.90;;;2.82;92.99;97808.31;5062526;28;20477;-74
2023/02/22 04:48:06;;;;;;;14.17;11.27;;;3.10;99.90;;;2.90;92.89;97814.63;5050596;28;20458;-75
2023/02/22 04:50:33;;;;;;;12.00;10.70;;;3.10;99.90;;;2.89;92.99;97811.16;5067545;28;20853;-75
2023/02/22 04:53:01;;;;;;;12.47;11.17;;;3.00;99.90;;;2.68;92.64;97771.69;5040624;28;20957;-75
2023/02/22 04:55:28;;;;;;;12.37;11.07;;;3.00;99.90;;;2.83;92.94;97811.81;5047839;28;20484;-75
2023/02/22 04:57:57;;;;;;;14.20;11.13;;;3.00;99.90;;;2.71;93.06;97808.69;5048336;28;20445;-74
2023/02/22 05:00:26;;;;;;;13.23;11.93;;;2.80;99.90;;;2.46;93.03;97743.88;5043395;28;20448;-73
2023/02/22 05:02:53;;;;;;;13.10;11.70;;;2.90;99.90;;;2.69;93.15;97795.50;5050270;28;20767;-73
2023/02/22 05:05:22;;;;;;;15.53;13.80;;;3.00;99.90;;;2.91;93.39;97814.47;5062507;28;20490;-74
2023/02/22 05:07:50;;;;;;;15.17;13.07;;;3.00;99.90;;;2.68;93.30;97779.69;5063529;28;20968;-74
2023/02/22 05:10:17;;;;;;;16.57;14.33;;;3.00;99.90;;;2.86;93.36;97808.78;5045438;28;20511;-74
2023/02/22 05:12:44;;;;;;;16.67;14.20;;;2.90;99.90;;;2.66;93.14;97808.38;5063500;28;20453;-74
2023/02/22 05:15:17;;;;;;;15.27;12.30;;;2.80;99.90;;;2.74;93.99;97799.50;5049824;28;20476;-72
2023/02/22 05:17:46;;;;;;;16.63;13.73;;;2.70;99.90;;;2.74;93.32;97799.50;5044632;28;20457;-73
2023/02/22 05:20:22;;;;;;;15.00;13.40;;;2.80;99.90;;;2.78;93.69;97804.31;5052978;28;20462;-74
2023/02/22 05:22:50;;;;;;;17.17;11.87;;;2.80;99.90;;;2.72;93.46;97796.16;5059690;28;20449;-75
2023/02/22 05:25:19;;;;;;;13.73;12.27;;;2.80;99.90;;;2.63;93.11;97803.34;5053121;28;20468;-71
2023/02/22 05:27:51;;;;;;;12.90;11.50;;;2.70;99.90;;;2.48;93.12;97769.38;5043086;28;20564;-74
2023/02/22 05:30:29;;;;;;;17.47;11.50;;;2.60;99.90;;;2.73;93.51;97798.66;5048932;28;20457;-73
2023/02/22 05:32:58;;;;;;;13.83;11.97;;;2.70;99.90;;;2.64;92.73;97781.00;5045439;28;20454;-73
2023/02/22 05:35:26;;;;;;;11.97;9.93;;;2.80;99.90;;;2.73;92.60;97790.66;5043251;28;20954;-75
2023/02/22 05:37:53;;;;;;;16.97;12.00;;;2.80;99.90;;;2.74;92.36;97789.66;5045597;28;20494;-75
2023/02/22 05:40:25;;;;;;;12.50;11.20;;;2.80;99.90;;;2.65;93.01;97786.19;5059627;28;21019;-71
2023/02/22 05:42:54;;;;;;;12.40;10.97;;;2.80;99.90;;;2.69;92.92;97792.84;5048482;28;20916;-79
2023/02/22 05:45:24;;;;;;;13.70;10.43;;;2.80;99.90;;;2.66;92.83;97781.69;5035838;28;20465;-71
2023/02/22 05:47:52;;;;;;;11.97;10.37;;;2.70;99.90;;;2.65;92.53;97780.00;5050143;28;20984;-72
2023/02/22 05:50:21;;;;;;;11.40;9.10;;;2.60;99.90;;;2.63;93.18;97782.00;5051713;28;20472;-69
2023/02/22 05:52:49;;;;;;;10.47;9.40;;;2.70;99.90;;;2.67;92.48;97783.34;5059774;28;20828;-72
2023/02/22 05:55:18;;;;;;;13.33;10.47;;;2.70;99.90;;;2.67;93.39;97778.03;5038772;28;20977;-69
2023/02/22 05:57:46;;;;;;;9.83;8.70;;;2.70;99.90;;;2.76;93.29;97787.66;5042267;28;20543;-71
2023/02/22 06:00:18;;;;;;;12.73;10.80;;;2.70;99.90;;;2.68;93.23;97783.16;5047603;28;20568;-71
2023/02/22 06:02:46;;;;;;;14.40;10.03;;;2.70;99.90;;;2.71;93.27;97789.16;5056610;28;20546;-68
2023/02/22 06:05:13;;;;;;;12.87;10.10;;;2.70;99.90;;;2.66;93.26;97792.38;5035983;28;20465;-70
2023/02/22 06:07:42;;;;;;;11.73;10.17;;;2.70;99.90;;;2.69;92.92;97794.69;5044724;28;20458;-68
2023/02/22 06:10:09;;;;;;;10.67;9.47;;;2.70;99.90;;;2.82;93.07;97791.47;5048954;28;20542;-70
2023/02/22 06:12:36;;;;;;;11.57;9.70;;;2.80;99.90;;;2.85;92.65;97788.44;5040732;28;20938;-70
2023/02/22 06:15:04;;;;;;;11.20;10.00;;;2.90;99.90;;;2.82;92.82;97778.97;5047283;28;20505;-70
2023/02/22 06:17:31;;;;;;;13.33;10.13;;;2.90;99.90;;;2.89;92.65;97791.63;5039516;28;20464;-70
2023/02/22 06:19:58;;;;;;;10.73;9.63;;;2.90;99.90;;;2.73;93.01;97798.66;5039279;28;20462;-70
2023/02/22 06:22:26;;;;;;;12.13;9.70;;;2.80;99.90;;;2.88;92.93;97789.97;5063954;28;20524;-71
2023/02/22 06:24:54;;;;;;;13.07;11.37;;;2.90;99.90;;;2.97;93.51;97792.41;5053838;28;20907;-71
2023/02/22 06:27:21;;;;;;;12.97;10.07;;;3.00;99.90;;;3.25;93.70;97788.47;5049920;28;20458;-72
2023/02/22 06:29:48;;;;;;;12.47;10.20;;;3.30;99.90;;;3.46;93.50;97792.38;5036791;28;20674;-69
2023/02/22 06:32:15;;;;;;;11.57;10.30;;;3.50;99.90;;;3.38;92.63;97806.63;5051765;28;20449;-70
2023/02/22 06:34:43;;;;;;;14.47;9.27;;;3.50;99.90;;;3.40;92.08;97805.41;5056662;28;20466;-70
2023/02/22 06:37:10;;;;;;;12.03;9.23;;;3.60;99.90;;;3.41;91.31;97803.59;5054850;28;20496;-70
2023/02/22 06:39:37;;;;;;;9.87;8.40;;;3.50;99.90;;;3.40;92.35;97800.06;5046471;28;20534;-70
2023/02/22 06:42:06;;;;;;;10.90;9.80;;;3.50;99.90;;;3.46;92.17;97808.41;5051872;28;20958;-72
2023/02/22 06:44:33;;;;;;;11.77;9.50;;;3.60;99.90;;;3.52;91.46;97805.88;5056825;28;21005;-71
2023/02/22 06:47:00;;;;;;;10.47;8.80;;;3.70;99.90;;;3.43;91.17;97811.44;5056932;28;20523;-70
2023/02/22 06:49:28;;;;;;;10.67;9.47;;;3.60;99.90;;;3.41;91.07;97795.56;5044989;28;20484;-68
2023/02/22 06:51:55;;;;;;;15.53;9.43;;;3.60;99.90;;;3.62;89.98;97813.66;5049905;28;21225;-70
2023/02/22 06:54:23;;;;;;;11.50;8.93;;;3.70;99.90;;;3.40;90.31;97802.75;5036699;28;20438;-69
2023/02/22 06:56:51;;;;;;;9.70;8.60;;;3.60;99.90;;;3.41;90.34;97806.25;5039206;28;20475;-71
2023/02/22 06:59:20;;;;;;;10.87;8.87;;;3.60;99.90;;;3.23;91.17;97809.16;5036151;28;20485;-69
2023/02/22 07:01:48;;;;;;;12.00;9.40;;;3.60;99.90;;;3.42;90.82;97804.44;5040765;28;20601;-71
2023/02/22 07:04:15;;;;;;;9.83;8.83;;;3.60;99.90;;;3.43;90.45;97806.09;5042145;28;20466;-69
2023/02/22 07:06:46;;;;;;;10.73;8.40;;;3.60;99.90;;;3.46;90.55;97808.41;5041004;28;20457;-70
2023/02/22 07:09:14;;;;;;;9.90;8.63;;;3.60;99.90;;;3.62;90.02;97805.66;5039065;28;20460;-70
2023/02/22 07:11:41;;;;;;;11.60;9.83;;;3.70;99.90;;;3.64;89.60;97806.31;5044879;28;20450;-69
2023/02/22 07:14:08;;;;;;;9.60;8.60;;;3.70;99.90;;;3.71;89.14;97805.59;5054237;28;20454;-70
2023/02/22 07:16:37;;;;;;;10.70;9.27;;;3.80;99.90;;;3.70;89.96;97804.75;5047391;28;20570;-69
2023/02/22 07:19:04;;;;;;;12.40;9.13;;;3.80;99.90;;;3.64;89.54;97800.97;5069597;28;20453;-70
2023/02/22 07:21:32;;;;;;;13.30;9.67;;;3.80;99.90;;;3.62;89.43;97802.13;5059760;28;20908;-69
2023/02/22 07:23:59;;;;;;;11.60;9.70;;;3.90;99.90;;;3.78;89.27;97796.69;5050412;28;20476;-71
2023/02/22 07:26:28;;;;;;;12.40;10.40;;;3.90;99.90;;;3.81;88.73;97796.34;5039214;28;20462;-70
2023/02/22 07:28:55;;;;;;;10.30;9.20;;;3.90;99.90;;;3.89;88.80;97798.13;5040241;28;20551;-71
2023/02/22 07:31:23;;;;;;;11.40;10.20;;;4.00;99.90;;;3.97;88.55;97800.72;5049504;28;20461;-72
2023/02/22 07:33:51;;;;;;;12.73;10.20;;;4.10;99.90;;;4.08;87.47;97793.31;5044608;28;21021;-72
2023/02/22 07:36:18;;;;;;;12.83;9.33;;;4.10;99.90;;;4.00;89.04;97793.38;5038928;28;20873;-70
2023/02/22 07:38:46;;;;;;;11.30;9.60;;;4.10;99.90;;;4.14;87.83;97795.25;5055119;28;20489;-70
2023/02/22 07:41:13;;;;;;;12.60;10.20;;;4.20;99.90;;;4.25;87.68;97794.03;5053643;28;20855;-71
2023/02/22 07:43:40;;;;;;;11.27;10.03;;;4.30;99.90;;;4.26;87.71;97784.97;5049656;28;20949;-72
2023/02/22 07:46:08;;;;;;;11.57;10.37;;;4.40;99.90;;;4.40;87.28;97788.69;5034687;28;20542;-71
2023/02/22 07:48:35;;;;;;;10.43;9.20;;;4.50;99.90;;;4.18;86.66;97791.22;5028579;28;20456;-71
2023/02/22 07:51:04;;;;;;;12.70;11.40;;;4.50;99.90;;;4.14;87.83;97725.72;5034851;28;20516;-70
2023/02/22 07:53:33;;;;;;;11.07;9.87;;;4.60;99.90;;;4.38;87.21;97793.41;5036375;28;20839;-69
2023/02/22 07:56:04;;;;;;;12.93;8.80;;;4.60;99.90;;;4.44;87.90;97787.31;5036608;28;20504;-70
2023/02/22 07:58:32;;;;;;;13.73;10.30;;;4.60;99.90;;;4.70;86.61;97791.41;5053457;28;20473;-70
2023/02/22 08:01:00;;;;;;;15.03;10.40;;;4.80;99.90;;;4.78;87.55;97799.38;5037440;28;20500;-70
2023/02/22 08:03:33;;;;;;;12.47;10.87;;;4.90;99.90;;;4.73;86.48;97793.72;5053123;28;20965;-70
2023/02/22 08:06:01;;;;;;;14.57;10.37;;;4.90;99.90;;;4.91;86.83;97785.34;5037241;28;21008;-72
2023/02/22 08:08:30;;;;;;;11.80;9.70;;;5.00;99.90;;;5.13;85.69;97760.47;5046857;28;20456;-70
2023/02/22 08:10:57;;;;;;;15.33;10.60;;;5.20;99.90;;;5.50;84.73;97783.59;5049166;28;20457;-71
2023/02/22 08:13:25;;;;;;;13.13;9.77;;;5.40;99.90;;;5.47;84.22;97781.31;5056642;28;20474;-70
2023/02/22 08:15:53;;;;;;;11.70;10.50;;;5.60;99.20;;;5.74;84.17;97783.44;5033985;28;20617;-72
2023/02/22 08:18:22;;;;;;;12.10;9.27;;;5.70;99.60;;;5.85;82.53;97792.81;5041546;28;20474;-71
2023/02/22 08:20:51;;;;;;;11.37;10.17;;;5.90;98.30;;;6.22;82.73;97780.22;5040310;28;20518;-69
2023/02/22 08:23:21;;;;;;;13.97;9.83;;;6.10;98.10;;;6.56;81.62;97775.94;5053263;28;20487;-71
2023/02/22 08:25:49;;;;;;;14.00;10.33;;;6.40;96.90;;;6.39;81.40;97786.13;5063015;28;20466;-77
2023/02/22 08:28:22;;;;;;;13.43;10.10;;;6.50;94.20;;;6.20;81.80;97772.34;5038010;28;22674;-70
2023/02/22 08:30:49;;;;;;;11.90;10.50;;;6.50;93.30;;;6.27;81.97;97771.56;5037683;28;20500;-71
2023/02/22 08:33:18;;;;;;;13.37;10.07;;;6.50;93.80;;;6.08;82.47;97764.00;5036469;28;20473;-70
2023/02/22 08:35:48;;;;;;;10.63;9.60;;;6.50;93.60;;;6.52;82.28;97775.50;5036804;28;20582;-69
2023/02/22 08:38:24;;;;;;;12.60;10.67;;;6.60;94.90;;;6.88;81.64;97772.81;5040635;28;20460;-70
2023/02/22 08:40:53;;;;;;;14.03;11.07;;;6.80;95.00;;;6.99;80.78;97780.34;5037163;28;20473;-70
2023/02/22 08:43:21;;;;;;;13.23;11.53;;;7.00;94.10;;;7.15;80.00;97773.81;5055360;28;20935;-70
2023/02/22 08:45:50;;;;;;;15.40;11.50;;;7.20;93.00;;;7.27;79.63;97766.00;5045941;28;20470;-71
2023/02/22 08:48:18;;;;;;;19.07;10.70;;;7.30;92.50;;;7.20;79.83;97770.50;5042419;28;20506;-71
2023/02/22 08:50:46;;;;;;;15.33;11.87;;;7.40;92.40;;;7.46;79.09;97777.88;5038503;28;20465;-70
2023/02/22 08:53:15;;;;;;;15.47;12.13;;;7.60;92.10;;;7.52;79.36;97760.13;5056085;28;20497;-70
2023/02/22 08:55:43;;;;;;;15.57;12.17;;;7.70;92.20;;;7.82;78.42;97770.53;5038163;28;20501;-71
2023/02/22 08:58:12;;;;;;;17.00;11.53;;;7.90;91.50;;;8.10;77.29;97763.31;5040964;28;20529;-70
2023/02/22 09:00:43;;;;;;;15.80;10.73;;;8.00;91.20;;;8.43;76.83;97774.09;5041263;28;20606;-71
2023/02/22 09:03:13;;;;;;;11.97;10.00;;;8.30;91.10;;;8.48;76.16;97765.38;5047845;28;20457;-70
2023/02/22 09:05:40;;;;;;;23.03;13.10;;;8.50;90.40;;;8.62;76.13;97766.25;5043659;28;20462;-71
2023/02/22 09:08:07;;;;;;;30.73;12.80;;;8.50;90.20;;;8.69;76.19;97761.66;5038756;28;20455;-69
2023/02/22 09:10:35;;;;;;;23.00;13.50;;;8.60;90.00;;;8.60;76.80;97774.53;5042235;28;20463;-70
2023/02/22 09:13:05;;;;;;;19.50;12.13;;;8.70;90.20;;;8.66;76.18;97737.84;5061286;28;20460;-76
2023/02/22 09:15:35;;;;;;;14.47;11.80;;;8.80;90.10;;;8.56;76.67;97748.22;5057576;28;20461;-68
2023/02/22 09:18:03;;;;;;;16.53;11.90;;;8.80;90.00;;;9.00;75.76;97762.03;5069126;28;20539;-71
2023/02/22 09:20:31;;;;;;;19.50;12.17;;;8.90;90.20;;;9.55;74.97;97758.91;5038183;28;20463;-71
2023/02/22 09:22:58;;;;;;;17.13;13.20;;;9.20;90.20;;;9.89;73.33;97759.53;5040215;28;20453;-70
2023/02/22 09:25:26;;;;;;;15.80;10.93;;;9.50;89.10;;;10.11;72.25;97767.31;5040452;28;20536;-70
2023/02/22 09:27:54;;;;;;;12.00;10.73;;;9.70;87.80;;;10.14;72.76;97756.06;5040408;28;20530;-72
2023/02/22 09:30:25;;;;;;;18.53;11.77;;;9.80;87.10;;;10.04;72.75;97750.31;5060920;28;20484;-71
2023/02/22 09:32:58;;;;;;;12.73;10.67;;;10.00;85.70;;;10.11;72.55;97750.28;5052993;28;20477;-72
2023/02/22 09:35:26;;;;;;;12.67;11.33;;;10.00;85.30;;;10.19;72.46;97750.81;5044998;28;21914;-70
2023/02/22 09:37:55;;;;;;;13.33;11.90;;;10.10;85.40;;;10.36;71.89;97758.38;5045970;28;20485;-71
2023/02/22 09:40:28;;;;;;;12.80;11.50;;;10.20;85.60;;;10.56;71.58;97752.03;5049346;28;20506;-72
2023/02/22 09:43:20;;;;;;;13.43;12.03;;;10.30;85.60;;;9.73;74.08;97738.47;5045564;28;20458;-71
2023/02/22 09:46:02;;;;;;;13.10;10.70;;;10.10;85.30;;;10.22;73.58;97754.97;5039787;28;20484;-72
2023/02/22 09:48:35;;;;;;;11.90;10.63;;;10.10;86.40;;;10.46;72.29;97739.84;5033781;28;20453;-71
2023/02/22 09:51:09;;;;;;;12.80;11.50;;;10.30;85.90;;;10.44;72.29;97741.09;5039092;28;20461;-71
2023/02/22 09:53:42;;;;;;;12.03;10.77;;;10.40;85.60;;;10.85;70.94;97749.69;5046585;28;20478;-72
2023/02/22 09:56:12;;;;;;;14.03;10.50;;;10.60;85.20;;;11.08;69.87;97742.75;5038170;28;20472;-71
2023/02/22 09:58:44;;;;;;;15.17;11.60;;;10.70;84.60;;;11.13;70.24;97723.97;5038720;28;20548;-71
2023/02/22 10:01:25;;;;;;;19.70;11.47;;;10.90;85.00;;;11.19;70.12;97733.91;5037541;28;20450;-72
2023/02/22 10:04:01;;;;;;;13.33;11.07;;;10.90;84.80;;;11.24;69.81;97731.34;5050654;28;20501;-72
2023/02/22 10:06:29;;;;;;;11.53;10.30;;;11.00;84.60;;;11.42;69.13;97733.19;5046314;28;20548;-71
2023/02/22 10:09:00;;;;;;;11.90;10.70;;;11.10;84.30;;;11.60;68.58;97735.06;5042565;28;21699;-70
2023/02/22 10:11:47;;;;;;;14.13;11.83;;;11.30;83.90;;;11.58;68.57;97725.50;5047651;28;20470;-70
2023/02/22 10:14:45;;;;;;;13.23;10.67;;;11.40;83.80;;;11.26;69.56;97721.13;5043927;28;20964;-76
2023/02/22 10:17:26;;;;;;;13.30;11.67;;;11.30;83.60;;;11.16;70.64;97735.16;5051855;28;21722;-73
2023/02/22 10:20:18;;;;;;;12.13;10.60;;;11.20;83.80;;;11.61;68.35;97715.06;5057883;28;20461;-70
2023/02/22 10:23:03;;;;;;;14.60;12.20;;;11.30;83.80;;;11.94;66.96;97728.34;5044205;28;20453;-69
2023/02/22 10:25:35;;;;;;;12.63;11.33;;;11.70;83.10;;;11.96;67.14;97729.72;5054449;28;20499;-70
2023/02/22 10:28:11;;;;;;;12.53;11.13;;;11.80;82.70;;;11.77;68.44;97723.59;5038757;28;20468;-69
2023/02/22 10:30:42;;;;;;;10.60;9.50;;;11.80;82.90;;;11.61;68.79;97717.75;5033073;28;20480;-69
2023/02/22 10:33:15;;;;;;;12.07;9.60;;;11.80;82.70;;;12.06;67.75;97723.81;5041379;28;20465;-70
2023/02/22 10:35:53;;;;;;;12.20;10.27;;;11.90;82.80;;;12.00;67.55;97717.41;5038707;28;20508;-69